^^
Saratoga-Weather Station Historical Data
Daily Summary for May 7, 2020 Units:  Metric    English   Both
Daily Weekly Monthly Yearly Custom
  High: Low: Average:
Temperature: 9.1 °C 1.7 °C 5.1 °C
Dew Point: 3.4 °C 0.3 °C 1.8 °C
Humidity: 91% 56% 80%
Wind Speed: 16.3km/h 0km/h 4km/h
Wind Gust: 24.1km/h - -
Wind- - West
Pressure: 1022.0 hPa 1011.2 hPa -
Precipitation: 0.0 mm    
Historical Graphs
 
 
Tabular Data for May 7, 2020
Time Temperature Dew Point Pressure Wind Wind Speed Wind Gust Humidity Rainfall Rate (Hourly) solar
00:03 3.7 °C 1.7 °C 1011.2 hPa West 3.2 km/h 6.4 km/h 87% 0.0 mm 0 W/m2
00:08 3.6 °C 1.6 °C 1011.2 hPa West 9.7 km/h 14.5 km/h 87% 0.0 mm 0 W/m2
00:13 3.6 °C 1.6 °C 1011.2 hPa WNW 16.3 km/h 16.1 km/h 87% 0.0 mm 0 W/m2
00:18 3.6 °C 1.6 °C 1011.2 hPa WNW 6.4 km/h 20.9 km/h 87% 0.0 mm 0 W/m2
00:23 3.6 °C 1.6 °C 1011.2 hPa West 11.1 km/h 16.1 km/h 87% 0.0 mm 0 W/m2
00:28 3.6 °C 1.5 °C 1011.5 hPa West 6.4 km/h 19.3 km/h 86% 0.0 mm 0 W/m2
00:33 3.5 °C 1.4 °C 1011.5 hPa WNW 14.3 km/h 16.1 km/h 86% 0.0 mm 0 W/m2
00:39 3.5 °C 1.5 °C 1011.5 hPa WSW 6.4 km/h 20.9 km/h 87% 0.0 mm 0 W/m2
00:44 3.4 °C 1.4 °C 1011.5 hPa WSW 13 km/h 14.5 km/h 87% 0.0 mm 0 W/m2
00:49 3.3 °C 1.3 °C 1011.9 hPa NW 11.1 km/h 20.9 km/h 87% 0.0 mm 0 W/m2
00:54 3.3 °C 1.3 °C 1011.9 hPa WNW 11.1 km/h 11.3 km/h 87% 0.0 mm 0 W/m2
00:59 3.3 °C 1.3 °C 1011.9 hPa WNW 6.4 km/h 14.5 km/h 87% 0.0 mm 0 W/m2
01:04 3.3 °C 1.3 °C 1011.9 hPa WNW 1.4 km/h 11.3 km/h 87% 0.0 mm 0 W/m2
01:09 3.2 °C 1.2 °C 1011.9 hPa SW 4.7 km/h 11.3 km/h 87% 0.0 mm 0 W/m2
01:14 3.2 °C 1.2 °C 1011.9 hPa WNW 7.9 km/h 8 km/h 87% 0.0 mm 0 W/m2
01:19 3.2 °C 1.2 °C 1012.2 hPa WNW 6.4 km/h 6.4 km/h 87% 0.0 mm 0 W/m2
01:24 3.1 °C 1.3 °C 1012.2 hPa West 9.7 km/h 16.1 km/h 88% 0.0 mm 0 W/m2
01:29 3.1 °C 1.3 °C 1012.2 hPa WNW 3.2 km/h 6.4 km/h 88% 0.0 mm 0 W/m2
01:35 3 °C 1.2 °C 1012.5 hPa WSW 3.2 km/h 6.4 km/h 88% 0.0 mm 0 W/m2
01:40 2.9 °C 1.1 °C 1012.5 hPa NW 7.9 km/h 8 km/h 88% 0.0 mm 0 W/m2
01:45 2.9 °C 1.1 °C 1012.5 hPa WNW 4.7 km/h 6.4 km/h 88% 0.0 mm 0 W/m2
01:50 2.9 °C 1.1 °C 1012.5 hPa SW 6.4 km/h 12.9 km/h 88% 0.0 mm 0 W/m2
01:55 2.9 °C 1.3 °C 1012.5 hPa WSW 6.4 km/h 9.7 km/h 89% 0.0 mm 0 W/m2
02:00 2.9 °C 1.1 °C 1012.9 hPa West 9.7 km/h 9.7 km/h 88% 0.0 mm 0 W/m2
02:05 2.8 °C 1.2 °C 1012.9 hPa NW 1.4 km/h 6.4 km/h 89% 0.0 mm 0 W/m2
02:10 2.8 °C 1.2 °C 1012.9 hPa NNW 1.4 km/h 3.2 km/h 89% 0.0 mm 0 W/m2
02:15 2.7 °C 1.1 °C 1012.9 hPa Calm   3.2 km/h 89% 0.0 mm 0 W/m2
02:20 2.7 °C 1.1 °C 1012.9 hPa NW 1.4 km/h 3.2 km/h 89% 0.0 mm 0 W/m2
02:25 2.7 °C 1.1 °C 1012.9 hPa WNW 3.2 km/h 3.2 km/h 89% 0.0 mm 0 W/m2
02:30 2.7 °C 1.1 °C 1012.9 hPa WNW 3.2 km/h 4.8 km/h 89% 0.0 mm 0 W/m2
02:35 2.7 °C 1.1 °C 1012.9 hPa WSW 1.4 km/h 11.3 km/h 89% 0.0 mm 0 W/m2
02:40 2.7 °C 1.1 °C 1012.9 hPa WNW 3.2 km/h 6.4 km/h 89% 0.0 mm 0 W/m2
02:45 2.7 °C 1.2 °C 1012.9 hPa WSW 3.2 km/h 3.2 km/h 90% 0.0 mm 0 W/m2
02:50 2.7 °C 1.2 °C 1013.2 hPa NW 3.2 km/h 8 km/h 90% 0.0 mm 0 W/m2
02:55 2.7 °C 1.2 °C 1013.2 hPa West 1.4 km/h 6.4 km/h 90% 0.0 mm 0 W/m2
03:00 2.7 °C 1.1 °C 1013.2 hPa West 1.4 km/h 4.8 km/h 89% 0.0 mm 0 W/m2
03:05 2.7 °C 1.1 °C 1013.2 hPa WNW 3.2 km/h 3.2 km/h 89% 0.0 mm 0 W/m2
03:10 2.7 °C 1.1 °C 1013.5 hPa West 1.4 km/h 6.4 km/h 89% 0.0 mm 0 W/m2
03:15 2.6 °C 1 °C 1013.5 hPa Calm   4.8 km/h 89% 0.0 mm 0 W/m2
03:20 2.4 °C 0.8 °C 1013.5 hPa Calm     89% 0.0 mm 0 W/m2
03:25 2.3 °C 0.7 °C 1013.5 hPa South 1.4 km/h 4.8 km/h 89% 0.0 mm 0 W/m2
03:30 2.2 °C 0.6 °C 1013.5 hPa Calm   1.6 km/h 89% 0.0 mm 0 W/m2
03:35 2.1 °C 0.6 °C 1013.5 hPa West 1.4 km/h 6.4 km/h 90% 0.0 mm 0 W/m2
03:40 1.9 °C 0.4 °C 1013.9 hPa South 3.2 km/h 4.8 km/h 90% 0.0 mm 0 W/m2
03:45 1.9 °C 0.4 °C 1013.9 hPa Calm   6.4 km/h 90% 0.0 mm 0 W/m2
03:50 1.8 °C 0.5 °C 1013.9 hPa Calm   1.6 km/h 91% 0.0 mm 0 W/m2
03:55 1.8 °C 0.5 °C 1014.2 hPa West 3.2 km/h 6.4 km/h 91% 0.0 mm 0 W/m2
04:00 1.8 °C 0.5 °C 1014.2 hPa WNW 3.2 km/h 3.2 km/h 91% 0.0 mm 0 W/m2
04:05 1.9 °C 0.6 °C 1014.2 hPa WNW 4.7 km/h 6.4 km/h 91% 0.0 mm 0 W/m2
04:10 1.9 °C 0.6 °C 1014.2 hPa West 3.2 km/h 6.4 km/h 91% 0.0 mm 0 W/m2
04:15 2 °C 0.7 °C 1014.2 hPa WNW 3.2 km/h 4.8 km/h 91% 0.0 mm 0 W/m2
04:20 2.2 °C 0.9 °C 1014.2 hPa West 3.2 km/h 9.7 km/h 91% 0.0 mm 0 W/m2
04:25 2.2 °C 0.9 °C 1014.6 hPa West 1.4 km/h 3.2 km/h 91% 0.0 mm 0 W/m2
04:30 2.3 °C 1 °C 1014.6 hPa WNW 4.7 km/h 4.8 km/h 91% 0.0 mm 0 W/m2
04:35 2.4 °C 1.1 °C 1014.6 hPa West 1.4 km/h 4.8 km/h 91% 0.0 mm 0 W/m2
04:40 2.4 °C 1.1 °C 1014.6 hPa WNW 4.7 km/h 9.7 km/h 91% 0.0 mm 0 W/m2
04:45 2.4 °C 0.9 °C 1014.6 hPa WNW 4.7 km/h 9.7 km/h 90% 0.0 mm 0 W/m2
04:50 2.5 °C 1 °C 1014.6 hPa WNW 6.4 km/h 12.9 km/h 90% 0.0 mm 0 W/m2
04:55 2.6 °C 1.1 °C 1014.6 hPa WNW 4.7 km/h 6.4 km/h 90% 0.0 mm 0 W/m2
05:00 2.6 °C 1.1 °C 1014.6 hPa SW 4.7 km/h 14.5 km/h 90% 0.0 mm 0 W/m2
05:05 2.7 °C 1.2 °C 1014.9 hPa NW 4.7 km/h 4.8 km/h 90% 0.0 mm 0 W/m2
05:10 2.7 °C 1.2 °C 1014.9 hPa WSW 4.7 km/h 6.4 km/h 90% 0.0 mm 0 W/m2
05:15 2.6 °C 1.1 °C 1014.9 hPa WSW 3.2 km/h 6.4 km/h 90% 0.0 mm 0 W/m2
05:20 2.5 °C 1 °C 1014.9 hPa West 4.7 km/h 9.7 km/h 90% 0.0 mm 0 W/m2
05:25 2.5 °C 1 °C 1015.2 hPa West 6.4 km/h 6.4 km/h 90% 0.0 mm 0 W/m2
05:30 2.6 °C 1.1 °C 1015.2 hPa WNW 3.2 km/h 9.7 km/h 90% 0.0 mm 0 W/m2
05:35 2.7 °C 1.2 °C 1015.2 hPa WSW 1.4 km/h 4.8 km/h 90% 0.0 mm 0 W/m2
05:40 2.6 °C 1.1 °C 1015.2 hPa WNW 1.4 km/h 6.4 km/h 90% 0.0 mm 0 W/m2
05:45 2.6 °C 1.1 °C 1015.6 hPa West 3.2 km/h 8 km/h 90% 0.0 mm 0 W/m2
05:50 2.6 °C 1.1 °C 1015.6 hPa SW 3.2 km/h 8 km/h 90% 0.0 mm 0 W/m2
05:55 2.6 °C 1.1 °C 1015.6 hPa West 1.4 km/h 3.2 km/h 90% 0.0 mm 0 W/m2
06:00 2.5 °C 1 °C 1015.6 hPa West 6.4 km/h 9.7 km/h 90% 0.0 mm 0 W/m2
06:05 2.4 °C 0.9 °C 1015.6 hPa Calm   1.6 km/h 90% 0.0 mm 0 W/m2
06:10 2.3 °C 0.8 °C 1015.6 hPa West 1.4 km/h 8 km/h 90% 0.0 mm 0 W/m2
06:15 2.2 °C 0.7 °C 1015.6 hPa WNW 4.7 km/h 6.4 km/h 90% 0.0 mm 0 W/m2
06:20 2.1 °C 0.6 °C 1015.9 hPa Calm   4.8 km/h 90% 0.0 mm 0 W/m2
06:25 2 °C 0.5 °C 1015.9 hPa Calm   6.4 km/h 90% 0.0 mm 0 W/m2
06:30 1.9 °C 0.4 °C 1015.9 hPa WNW 4.7 km/h 4.8 km/h 90% 0.0 mm 0 W/m2
06:35 1.8 °C 0.3 °C 1015.9 hPa West 3.2 km/h 6.4 km/h 90% 0.0 mm 0 W/m2
06:40 1.8 °C 0.5 °C 1016.3 hPa WNW 4.7 km/h 8 km/h 91% 0.0 mm 0 W/m2
06:45 1.8 °C 0.5 °C 1016.3 hPa WNW 7.9 km/h 9.7 km/h 91% 0.0 mm 0 W/m2
06:50 1.7 °C 0.4 °C 1016.3 hPa West 3.2 km/h 9.7 km/h 91% 0.0 mm 0 W/m2
06:55 1.7 °C 0.4 °C 1016.3 hPa WNW 6.4 km/h 12.9 km/h 91% 0.0 mm 0 W/m2
07:00 1.7 °C 0.4 °C 1016.3 hPa WNW 3.2 km/h 8 km/h 91% 0.0 mm 0 W/m2
07:05 1.7 °C 0.4 °C 1016.3 hPa WNW 11.1 km/h 11.3 km/h 91% 0.0 mm 0 W/m2
07:10 1.8 °C 0.5 °C 1016.6 hPa West 4.7 km/h 9.7 km/h 91% 0.0 mm 5 W/m2
07:15 1.9 °C 0.6 °C 1016.6 hPa WNW 3.2 km/h 6.4 km/h 91% 0.0 mm 7 W/m2
07:20 1.9 °C 0.6 °C 1016.6 hPa West 1.4 km/h 4.8 km/h 91% 0.0 mm 11 W/m2
07:25 1.9 °C 0.6 °C 1016.9 hPa West 4.7 km/h 11.3 km/h 91% 0.0 mm 12 W/m2
07:30 2 °C 0.7 °C 1016.9 hPa West 3.2 km/h 6.4 km/h 91% 0.0 mm 12 W/m2
07:35 1.9 °C 0.6 °C 1016.9 hPa West 6.4 km/h 9.7 km/h 91% 0.0 mm 14 W/m2
07:40 1.9 °C 0.6 °C 1017.3 hPa WNW 1.4 km/h 4.8 km/h 91% 0.0 mm 16 W/m2
07:45 1.9 °C 0.6 °C 1017.3 hPa West 1.4 km/h 6.4 km/h 91% 0.0 mm 18 W/m2
07:50 1.9 °C 0.6 °C 1017.3 hPa SW 1.4 km/h 4.8 km/h 91% 0.0 mm 16 W/m2
07:55 1.9 °C 0.6 °C 1017.3 hPa WSW 3.2 km/h 8 km/h 91% 0.0 mm 14 W/m2
08:00 1.9 °C 0.6 °C 1017.3 hPa Calm   6.4 km/h 91% 0.0 mm 14 W/m2
08:06 1.9 °C 0.6 °C 1017.6 hPa West 6.4 km/h 12.9 km/h 91% 0.0 mm 19 W/m2
08:11 1.9 °C 0.6 °C 1017.6 hPa West 6.4 km/h 8 km/h 91% 0.0 mm 21 W/m2
08:16 1.9 °C 0.6 °C 1018.0 hPa WNW 6.4 km/h 11.3 km/h 91% 0.0 mm 26 W/m2
08:21 2.1 °C 0.8 °C 1018.0 hPa West 4.7 km/h 6.4 km/h 91% 0.0 mm 23 W/m2
08:26 2.2 °C 0.9 °C 1018.3 hPa WNW 1.4 km/h 4.8 km/h 91% 0.0 mm 25 W/m2
08:31 2.2 °C 0.9 °C 1018.3 hPa WNW 3.2 km/h 8 km/h 91% 0.0 mm 37 W/m2
08:36 2.3 °C 1 °C 1018.3 hPa WSW 3.2 km/h 12.9 km/h 91% 0.0 mm 35 W/m2
08:41 2.4 °C 1.1 °C 1018.6 hPa NW 4.7 km/h 6.4 km/h 91% 0.0 mm 47 W/m2
08:46 2.4 °C 1.1 °C 1018.6 hPa WNW 4.7 km/h 12.9 km/h 91% 0.0 mm 47 W/m2
08:51 2.5 °C 1.2 °C 1018.6 hPa WNW 3.2 km/h 6.4 km/h 91% 0.0 mm 47 W/m2
08:56 2.6 °C 1.3 °C 1019.0 hPa WNW 6.4 km/h 12.9 km/h 91% 0.0 mm 56 W/m2
09:01 2.6 °C 1.3 °C 1019.0 hPa SW 6.4 km/h 8 km/h 91% 0.0 mm 62 W/m2
09:06 2.6 °C 1.3 °C 1019.0 hPa WSW 11.1 km/h 11.3 km/h 91% 0.0 mm 70 W/m2
09:11 2.7 °C 1.4 °C 1019.0 hPa West 6.4 km/h 8 km/h 91% 0.0 mm 70 W/m2
09:16 2.7 °C 1.4 °C 1019.3 hPa West 4.7 km/h 9.7 km/h 91% 0.0 mm 62 W/m2
09:21 2.7 °C 1.4 °C 1019.3 hPa West 1.4 km/h 6.4 km/h 91% 0.0 mm 76 W/m2
09:26 2.8 °C 1.5 °C 1019.3 hPa WNW 4.7 km/h 4.8 km/h 91% 0.0 mm 84 W/m2
09:31 2.9 °C 1.6 °C 1019.3 hPa WSW 7.9 km/h 12.9 km/h 91% 0.0 mm 91 W/m2
09:36 3 °C 1.7 °C 1019.3 hPa WSW 6.4 km/h 11.3 km/h 91% 0.0 mm 98 W/m2
09:41 3 °C 1.7 °C 1019.6 hPa West 3.2 km/h 6.4 km/h 91% 0.0 mm 100 W/m2
09:47 3.1 °C 1.6 °C 1019.6 hPa West 6.4 km/h 11.3 km/h 90% 0.0 mm 84 W/m2
09:52 3.1 °C 1.6 °C 1019.6 hPa WSW 4.7 km/h 6.4 km/h 90% 0.0 mm 105 W/m2
09:57 3.1 °C 1.6 °C 1019.6 hPa West 1.4 km/h 3.2 km/h 90% 0.0 mm 151 W/m2
10:02 3.2 °C 1.9 °C 1019.6 hPa West 3.2 km/h 6.4 km/h 91% 0.0 mm 148 W/m2
10:07 3.3 °C 2 °C 1019.6 hPa WNW 4.7 km/h 9.7 km/h 91% 0.0 mm 315 W/m2
10:12 3.6 °C 2.1 °C 1019.6 hPa WNW 4.7 km/h 14.5 km/h 90% 0.0 mm 373 W/m2
10:17 3.8 °C 2.3 °C 1019.6 hPa WSW 11.1 km/h 12.9 km/h 90% 0.0 mm 271 W/m2
10:22 4.2 °C 2.7 °C 1019.6 hPa WSW 6.4 km/h 9.7 km/h 90% 0.0 mm 367 W/m2
10:27 4.4 °C 2.7 °C 1019.6 hPa WNW 3.2 km/h 12.9 km/h 89% 0.0 mm 390 W/m2
10:32 4.7 °C 2.9 °C 1019.6 hPa West 6.4 km/h 11.3 km/h 88% 0.0 mm 418 W/m2
10:37 4.9 °C 3.1 °C 1019.6 hPa WNW 4.7 km/h 8 km/h 88% 0.0 mm 424 W/m2
10:42 5.1 °C 3.1 °C 1019.6 hPa WSW 6.4 km/h 11.3 km/h 87% 0.0 mm 434 W/m2
10:47 5.1 °C 3 °C 1020.0 hPa SW 11.1 km/h 14.5 km/h 86% 0.0 mm 438 W/m2
10:52 5.2 °C 3.1 °C 1019.6 hPa West 9.7 km/h 11.3 km/h 86% 0.0 mm 443 W/m2
10:57 5.4 °C 3.2 °C 1019.6 hPa West 16.3 km/h 17.7 km/h 86% 0.0 mm 450 W/m2
11:02 5.5 °C 3.2 °C 1019.6 hPa West 6.4 km/h 16.1 km/h 85% 0.0 mm 452 W/m2
11:07 5.5 °C 3 °C 1020.0 hPa West 6.4 km/h 16.1 km/h 84% 0.0 mm 462 W/m2
11:12 5.7 °C 3.2 °C 1020.0 hPa NW 3.2 km/h 14.5 km/h 84% 0.0 mm 464 W/m2
11:17 5.9 °C 3.4 °C 1020.0 hPa WNW 6.4 km/h 14.5 km/h 84% 0.0 mm 471 W/m2
11:22 6.1 °C 3.1 °C 1020.0 hPa West 11.1 km/h 12.9 km/h 81% 0.0 mm 478 W/m2
11:27 6.1 °C 2.7 °C 1020.0 hPa WNW 3.2 km/h 14.5 km/h 79% 0.0 mm 478 W/m2
11:32 6.2 °C 2.8 °C 1020.0 hPa WSW 7.9 km/h 11.3 km/h 79% 0.0 mm 494 W/m2
11:37 6.3 °C 3.1 °C 1020.0 hPa West 13 km/h 12.9 km/h 80% 0.0 mm 476 W/m2
11:42 6.5 °C 3.1 °C 1020.0 hPa WSW 4.7 km/h 6.4 km/h 79% 0.0 mm 531 W/m2
11:47 6.8 °C 3.1 °C 1020.3 hPa NW 6.4 km/h 14.5 km/h 77% 0.0 mm 476 W/m2
11:52 6.9 °C 2.6 °C 1020.3 hPa WSW 14.3 km/h 14.5 km/h 74% 0.0 mm 497 W/m2
11:57 6.9 °C 2.4 °C 1020.3 hPa WSW 3.2 km/h 12.9 km/h 73% 0.0 mm 540 W/m2
12:02 6.7 °C 1.8 °C 1020.3 hPa WNW 11.1 km/h 11.3 km/h 71% 0.0 mm 88 W/m2
12:07 6.6 °C 2.1 °C 1020.3 hPa West 4.7 km/h 14.5 km/h 73% 0.0 mm 135 W/m2
12:12 6.4 °C 1.9 °C 1020.3 hPa NW 4.7 km/h 12.9 km/h 73% 0.0 mm 83 W/m2
12:17 6.4 °C 2.1 °C 1020.3 hPa WNW 3.2 km/h 6.4 km/h 74% 0.0 mm 107 W/m2
12:22 6.4 °C 2.1 °C 1020.3 hPa NW 6.4 km/h 8 km/h 74% 0.0 mm 109 W/m2
12:27 6.5 °C 2.2 °C 1020.3 hPa NW 3.2 km/h 6.4 km/h 74% 0.0 mm 434 W/m2
12:32 6.6 °C 2.5 °C 1020.3 hPa WNW 4.7 km/h 9.7 km/h 75% 0.0 mm 478 W/m2
12:37 6.8 °C 2.5 °C 1020.3 hPa West 6.4 km/h 9.7 km/h 74% 0.0 mm 577 W/m2
12:42 7.2 °C 2.5 °C 1020.0 hPa WSW 6.4 km/h 9.7 km/h 72% 0.0 mm 585 W/m2
12:47 7.3 °C 2.2 °C 1020.0 hPa West 3.2 km/h 11.3 km/h 70% 0.0 mm 111 W/m2
12:52 7.2 °C 2.1 °C 1020.0 hPa WSW 3.2 km/h 12.9 km/h 70% 0.0 mm 135 W/m2
12:57 7.2 °C 2.1 °C 1020.0 hPa WNW 6.4 km/h 12.9 km/h 70% 0.0 mm 178 W/m2
13:02 7.3 °C 2 °C 1020.0 hPa WNW 6.4 km/h 11.3 km/h 69% 0.0 mm 561 W/m2
13:07 7.6 °C 2.3 °C 1020.0 hPa WNW 9.7 km/h 11.3 km/h 69% 0.0 mm 570 W/m2
13:12 7.7 °C 2.2 °C 1020.0 hPa West 9.7 km/h 24.1 km/h 68% 0.0 mm 165 W/m2
13:17 7.6 °C 2.1 °C 1020.0 hPa WNW 13 km/h 12.9 km/h 68% 0.0 mm 176 W/m2
13:22 7.4 °C 2.1 °C 1020.3 hPa WSW 11.1 km/h 14.5 km/h 69% 0.0 mm 134 W/m2
13:27 7.3 °C 1.8 °C 1020.3 hPa WNW 4.7 km/h 12.9 km/h 68% 0.0 mm 125 W/m2
13:32 7.4 °C 2.1 °C 1020.0 hPa WNW 7.9 km/h 12.9 km/h 69% 0.0 mm 316 W/m2
13:37 7.6 °C 1.9 °C 1020.0 hPa West 9.7 km/h 16.1 km/h 67% 0.0 mm 118 W/m2
13:42 7.6 °C 1.9 °C 1020.0 hPa NW 6.4 km/h 11.3 km/h 67% 0.0 mm 107 W/m2
13:47 7.6 °C 1.7 °C 1020.0 hPa WSW 7.9 km/h 16.1 km/h 66% 0.0 mm 128 W/m2
13:52 7.5 °C 1.8 °C 1020.0 hPa West 11.1 km/h 14.5 km/h 67% 0.0 mm 128 W/m2
13:57 7.6 °C 2.1 °C 1020.3 hPa NW 4.7 km/h 17.7 km/h 68% 0.0 mm 100 W/m2
14:02 7.6 °C 2.1 °C 1020.3 hPa West 13 km/h 19.3 km/h 68% 0.0 mm 139 W/m2
14:07 7.5 °C 1.8 °C 1020.3 hPa NNW 9.7 km/h 9.7 km/h 67% 0.0 mm 127 W/m2
14:12 7.5 °C 1.6 °C 1020.3 hPa WNW 11.1 km/h 14.5 km/h 66% 0.0 mm 169 W/m2
14:17 7.8 °C 1.4 °C 1020.0 hPa NW 4.7 km/h 14.5 km/h 64% 0.0 mm 366 W/m2
14:22 7.9 °C 0.8 °C 1020.3 hPa SSW 4.7 km/h 11.3 km/h 61% 0.0 mm 151 W/m2
14:27 8 °C 1.6 °C 1020.3 hPa WSW 7.9 km/h 12.9 km/h 64% 0.0 mm 135 W/m2
14:32 7.9 °C 1.7 °C 1020.3 hPa North 6.4 km/h 14.5 km/h 65% 0.0 mm 84 W/m2
14:37 7.8 °C 1.4 °C 1020.3 hPa West 3.2 km/h 17.7 km/h 64% 0.0 mm 149 W/m2
14:42 7.7 °C 1.3 °C 1020.3 hPa West 6.4 km/h 9.7 km/h 64% 0.0 mm 97 W/m2
14:47 7.7 °C 1.3 °C 1020.3 hPa WNW 4.7 km/h 17.7 km/h 64% 0.0 mm 139 W/m2
14:52 7.8 °C 1.4 °C 1020.3 hPa WNW 4.7 km/h 11.3 km/h 64% 0.0 mm 464 W/m2
14:57 8.1 °C 1.5 °C 1020.3 hPa WNW 11.1 km/h 16.1 km/h 63% 0.0 mm 497 W/m2
15:02 8.3 °C 1.9 °C 1020.3 hPa NW 4.7 km/h 6.4 km/h 64% 0.0 mm 148 W/m2
15:07 8.4 °C 1.5 °C 1020.3 hPa West 11.1 km/h 17.7 km/h 62% 0.0 mm 146 W/m2
15:12 8.3 °C 1 °C 1020.3 hPa SW 7.9 km/h 17.7 km/h 60% 0.0 mm 86 W/m2
15:17 8.1 °C 0.6 °C 1020.3 hPa WNW 4.7 km/h 12.9 km/h 59% 0.0 mm 163 W/m2
15:22 8.2 °C 0.4 °C 1020.3 hPa West 4.7 km/h 17.7 km/h 58% 0.0 mm 95 W/m2
15:27 8.4 °C 1.1 °C 1020.3 hPa WNW 3.2 km/h 4.8 km/h 60% 0.0 mm 418 W/m2
15:32 8.8 °C 1 °C 1020.3 hPa WNW 6.4 km/h 9.7 km/h 58% 0.0 mm 408 W/m2
15:38 9 °C 1.2 °C 1020.0 hPa West 3.2 km/h 9.7 km/h 58% 0.0 mm 390 W/m2
15:43 9.1 °C 1.3 °C 1020.3 hPa WSW 7.9 km/h 12.9 km/h 58% 0.0 mm 134 W/m2
15:48 9.1 °C 0.8 °C 1020.3 hPa NW 11.1 km/h 11.3 km/h 56% 0.0 mm 311 W/m2
15:53 8.8 °C 0.7 °C 1020.3 hPa West 4.7 km/h 6.4 km/h 57% 0.0 mm 67 W/m2
15:58 8.6 °C 0.8 °C 1020.3 hPa SW 4.7 km/h 8 km/h 58% 0.0 mm 197 W/m2
16:03 8.6 °C 1 °C 1020.3 hPa West 3.2 km/h 9.7 km/h 59% 0.0 mm 58 W/m2
16:08 8.4 °C 1.1 °C 1020.3 hPa West 1.4 km/h 4.8 km/h 60% 0.0 mm 53 W/m2
16:13 8.3 °C 1 °C 1020.3 hPa West 9.7 km/h 16.1 km/h 60% 0.0 mm 46 W/m2
16:18 8.1 °C 1 °C 1020.3 hPa West 4.7 km/h 9.7 km/h 61% 0.0 mm 69 W/m2
16:23 8.1 °C 1.3 °C 1020.7 hPa WNW 7.9 km/h 11.3 km/h 62% 0.0 mm 81 W/m2
16:28 8 °C 1.4 °C 1020.7 hPa West 4.7 km/h 6.4 km/h 63% 0.0 mm 95 W/m2
16:33 8.1 °C 1.5 °C 1020.3 hPa West 4.7 km/h 6.4 km/h 63% 0.0 mm 260 W/m2
16:38 8.3 °C 1.7 °C 1020.3 hPa NW 3.2 km/h 6.4 km/h 63% 0.0 mm 134 W/m2
16:43 8.4 °C 1.5 °C 1020.7 hPa WNW 1.4 km/h 4.8 km/h 62% 0.0 mm 91 W/m2
16:48 8.4 °C 1.5 °C 1020.7 hPa NW 1.4 km/h 8 km/h 62% 0.0 mm 70 W/m2
16:53 8.4 °C 1.8 °C 1020.7 hPa West 3.2 km/h 4.8 km/h 63% 0.0 mm 81 W/m2
16:58 8.3 °C 1.4 °C 1020.7 hPa West 1.4 km/h 9.7 km/h 62% 0.0 mm 100 W/m2
17:03 8.3 °C 1.9 °C 1020.7 hPa West 6.4 km/h 9.7 km/h 64% 0.0 mm 84 W/m2
17:08 8.3 °C 1.9 °C 1020.7 hPa WNW 3.2 km/h 4.8 km/h 64% 0.0 mm 128 W/m2
17:13 8.3 °C 1.7 °C 1020.7 hPa WNW 1.4 km/h 4.8 km/h 63% 0.0 mm 113 W/m2
17:18 8.4 °C 1.8 °C 1020.7 hPa WNW 3.2 km/h 3.2 km/h 63% 0.0 mm 60 W/m2
17:23 8.3 °C 1.9 °C 1020.7 hPa WNW 1.4 km/h 1.6 km/h 64% 0.0 mm 40 W/m2
17:28 8.3 °C 2.3 °C 1020.7 hPa WSW 3.2 km/h 3.2 km/h 66% 0.0 mm 40 W/m2
17:33 8.2 °C 2.2 °C 1020.7 hPa Calm   1.6 km/h 66% 0.0 mm 35 W/m2
17:38 8.1 °C 1.9 °C 1020.7 hPa Calm   3.2 km/h 65% 0.0 mm 26 W/m2
17:43 8 °C 2 °C 1020.7 hPa Calm   1.6 km/h 66% 0.0 mm 21 W/m2
17:49 7.9 °C 2.2 °C 1020.7 hPa Calm   3.2 km/h 67% 0.0 mm 21 W/m2
17:54 7.7 °C 2.2 °C 1020.7 hPa Calm     68% 0.0 mm 12 W/m2
17:59 7.6 °C 2.5 °C 1021.0 hPa Calm   3.2 km/h 70% 0.0 mm 12 W/m2
18:04 7.4 °C 2.5 °C 1021.0 hPa Calm     71% 0.0 mm 9 W/m2
18:09 7.2 °C 2.3 °C 1021.0 hPa Calm     71% 0.0 mm 7 W/m2
18:14 7.1 °C 2.4 °C 1021.0 hPa Calm     72% 0.0 mm 5 W/m2
18:19 6.9 °C 2.4 °C 1021.0 hPa Calm     73% 0.0 mm 0 W/m2
18:24 6.8 °C 2.5 °C 1021.0 hPa Calm     74% 0.0 mm 0 W/m2
18:29 6.7 °C 2.4 °C 1021.0 hPa Calm     74% 0.0 mm 0 W/m2
18:34 6.6 °C 2.5 °C 1021.0 hPa Calm     75% 0.0 mm 0 W/m2
18:39 6.5 °C 2.4 °C 1021.0 hPa Calm     75% 0.0 mm 0 W/m2
18:44 6.5 °C 2.4 °C 1021.3 hPa Calm   1.6 km/h 75% 0.0 mm 0 W/m2
18:49 6.6 °C 2.3 °C 1021.3 hPa SE 1.4 km/h 3.2 km/h 74% 0.0 mm 0 W/m2
18:54 6.6 °C 2.5 °C 1021.3 hPa Calm   1.6 km/h 75% 0.0 mm 0 W/m2
18:59 6.7 °C 2.4 °C 1021.3 hPa Calm     74% 0.0 mm 0 W/m2
19:04 6.7 °C 2.6 °C 1021.3 hPa Calm   1.6 km/h 75% 0.0 mm 0 W/m2
19:09 6.6 °C 2.5 °C 1021.3 hPa Calm   1.6 km/h 75% 0.0 mm 0 W/m2
19:14 6.6 °C 2.7 °C 1021.3 hPa Calm   1.6 km/h 76% 0.0 mm 0 W/m2
19:20 6.5 °C 2.8 °C 1021.7 hPa SSW 1.4 km/h 1.6 km/h 77% 0.0 mm 0 W/m2
19:25 6.4 °C 2.7 °C 1021.7 hPa SSW 1.4 km/h 3.2 km/h 77% 0.0 mm 0 W/m2
19:30 6.4 °C 2.8 °C 1021.7 hPa Calm     78% 0.0 mm 0 W/m2
19:35 6.3 °C 2.7 °C 1021.7 hPa Calm     78% 0.0 mm 0 W/m2
19:40 6.3 °C 2.9 °C 1021.7 hPa Calm     79% 0.0 mm 0 W/m2
19:45 6.3 °C 2.9 °C 1021.7 hPa SSW 1.4 km/h 1.6 km/h 79% 0.0 mm 0 W/m2
19:50 6.2 °C 2.8 °C 1021.7 hPa SSW 1.4 km/h 3.2 km/h 79% 0.0 mm 0 W/m2
19:55 6.3 °C 2.9 °C 1021.7 hPa SSW 1.4 km/h 1.6 km/h 79% 0.0 mm 0 W/m2
20:00 6.3 °C 2.9 °C 1021.7 hPa SE 1.4 km/h 1.6 km/h 79% 0.0 mm 0 W/m2
20:05 6.3 °C 2.9 °C 1021.7 hPa Calm   1.6 km/h 79% 0.0 mm 0 W/m2
20:10 6.3 °C 2.9 °C 1021.7 hPa Calm   3.2 km/h 79% 0.0 mm 0 W/m2
20:15 6.3 °C 2.9 °C 1021.7 hPa Calm     79% 0.0 mm 0 W/m2
20:20 6.3 °C 2.9 °C 1021.7 hPa Calm     79% 0.0 mm 0 W/m2
20:25 6.3 °C 2.9 °C 1021.7 hPa Calm     79% 0.0 mm 0 W/m2
20:30 6.3 °C 2.9 °C 1021.7 hPa SE 1.4 km/h 3.2 km/h 79% 0.0 mm 0 W/m2
20:35 6.4 °C 2.8 °C 1021.7 hPa NW 3.2 km/h 3.2 km/h 78% 0.0 mm 0 W/m2
20:40 6.7 °C 3.1 °C 1021.7 hPa East 1.4 km/h 3.2 km/h 78% 0.0 mm 0 W/m2
20:45 6.8 °C 3.1 °C 1021.7 hPa North 1.4 km/h 3.2 km/h 77% 0.0 mm 0 W/m2
20:50 6.8 °C 3.1 °C 1021.7 hPa Calm   1.6 km/h 77% 0.0 mm 0 W/m2
20:55 6.9 °C 3.1 °C 1021.7 hPa NNW 1.4 km/h 1.6 km/h 77% 0.0 mm 0 W/m2
21:00 7 °C 3.2 °C 1021.7 hPa Calm     77% 0.0 mm 0 W/m2
21:05 7 °C 3.1 °C 1021.7 hPa Calm   6.4 km/h 76% 0.0 mm 0 W/m2
21:10 7.1 °C 3.2 °C 1021.7 hPa West 1.4 km/h 3.2 km/h 76% 0.0 mm 0 W/m2
21:15 7.1 °C 3.2 °C 1021.7 hPa NNW 3.2 km/h 4.8 km/h 76% 0.0 mm 0 W/m2
21:20 7.1 °C 3.2 °C 1021.7 hPa SW 1.4 km/h 11.3 km/h 76% 0.0 mm 0 W/m2
21:25 7.1 °C 3 °C 1021.7 hPa Calm   3.2 km/h 75% 0.0 mm 0 W/m2
21:30 7.1 °C 3 °C 1021.7 hPa Calm   11.3 km/h 75% 0.0 mm 0 W/m2
21:35 7.1 °C 3 °C 1022.0 hPa NNW 1.4 km/h 3.2 km/h 75% 0.0 mm 0 W/m2
21:40 7.1 °C 3 °C 1022.0 hPa SW 6.4 km/h 6.4 km/h 75% 0.0 mm 0 W/m2
21:45 7.1 °C 3 °C 1021.7 hPa WSW 1.4 km/h 1.6 km/h 75% 0.0 mm 0 W/m2
21:50 7.1 °C 3 °C 1021.7 hPa Calm   6.4 km/h 75% 0.0 mm 0 W/m2
21:55 7.1 °C 3 °C 1021.7 hPa WNW 3.2 km/h 4.8 km/h 75% 0.0 mm 0 W/m2
22:00 7.1 °C 3 °C 1021.7 hPa East 3.2 km/h 6.4 km/h 75% 0.0 mm 0 W/m2
22:05 7.1 °C 3 °C 1021.7 hPa Calm   4.8 km/h 75% 0.0 mm 0 W/m2
22:10 7.1 °C 3.2 °C 1021.7 hPa ESE 1.4 km/h 6.4 km/h 76% 0.0 mm 0 W/m2
22:15 7 °C 3.1 °C 1021.7 hPa Calm   1.6 km/h 76% 0.0 mm 0 W/m2
22:20 6.9 °C 3 °C 1021.7 hPa NNE 3.2 km/h 3.2 km/h 76% 0.0 mm 0 W/m2
22:25 6.9 °C 3.1 °C 1021.7 hPa North 3.2 km/h 3.2 km/h 77% 0.0 mm 0 W/m2
22:30 6.9 °C 3.1 °C 1021.7 hPa Calm   1.6 km/h 77% 0.0 mm 0 W/m2
22:36 6.9 °C 3.1 °C 1021.7 hPa Calm   4.8 km/h 77% 0.0 mm 0 W/m2
22:41 6.9 °C 3.1 °C 1021.7 hPa Calm   1.6 km/h 77% 0.0 mm 0 W/m2
22:46 6.8 °C 3.1 °C 1021.7 hPa Calm   1.6 km/h 77% 0.0 mm 0 W/m2
22:51 6.8 °C 3.1 °C 1021.7 hPa NE 1.4 km/h 1.6 km/h 77% 0.0 mm 0 W/m2
22:56 6.8 °C 3.1 °C 1021.7 hPa Calm   3.2 km/h 77% 0.0 mm 0 W/m2
23:01 6.8 °C 3.1 °C 1021.7 hPa ENE 1.4 km/h 3.2 km/h 77% 0.0 mm 0 W/m2
23:06 6.8 °C 3.1 °C 1021.7 hPa Calm   3.2 km/h 77% 0.0 mm 0 W/m2
23:11 6.8 °C 3.1 °C 1021.3 hPa Calm     77% 0.0 mm 0 W/m2
23:16 6.8 °C 3.2 °C 1021.3 hPa Calm   3.2 km/h 78% 0.0 mm 0 W/m2
23:21 6.7 °C 3.1 °C 1021.3 hPa East 3.2 km/h 3.2 km/h 78% 0.0 mm 0 W/m2
23:26 6.7 °C 3 °C 1021.3 hPa ESE 4.7 km/h 4.8 km/h 77% 0.0 mm 0 W/m2
23:31 6.8 °C 3.1 °C 1021.3 hPa Calm   1.6 km/h 77% 0.0 mm 0 W/m2
23:36 6.7 °C 3.1 °C 1021.3 hPa Calm   3.2 km/h 78% 0.0 mm 0 W/m2
23:41 6.7 °C 3.1 °C 1021.3 hPa East 1.4 km/h 4.8 km/h 78% 0.0 mm 0 W/m2
23:46 6.7 °C 3.1 °C 1021.3 hPa East 3.2 km/h 3.2 km/h 78% 0.0 mm 0 W/m2
23:51 6.7 °C 3.1 °C 1021.3 hPa ESE 3.2 km/h 4.8 km/h 78% 0.0 mm 0 W/m2
23:56 6.7 °C 3 °C 1021.3 hPa Calm   3.2 km/h 77% 0.0 mm 0 W/m2
Juneau County Weather
Compliments of Weather Underground - 4 mb